Time;durP1;ratioP1;P1;durP2;ratioP2;P2;SDS_P1;SDS_P2;PMS_P1;PMS_P2;Temp;Humidity;BMP_temperature;BMP_pressure;BME280_temperature;BME280_humidity;BME280_pressure;Samples;Min_cycle;Max_cycle;Signal;HPM_P1;HPM_P2
2021/10/05 00:00:59;;;;;;;;;;;9.70;99.90;;;;;;5087187;28;20454;-58
2021/10/05 00:03:25;;;;;;;2.90;1.88;;;9.70;99.90;;;;;;5103652;28;19916;-55
2021/10/05 00:05:50;;;;;;;;;;;9.70;99.90;;;;;;5098607;28;20045;-53
2021/10/05 00:08:16;;;;;;;3.30;1.80;;;9.80;99.90;;;;;;5076677;28;20467;-52
2021/10/05 00:10:41;;;;;;;;;;;9.90;99.90;;;;;;5077482;28;20090;-58
2021/10/05 00:13:07;;;;;;;10.48;6.10;;;9.90;99.90;;;;;;5081763;28;19920;-60
2021/10/05 00:15:33;;;;;;;;;;;9.90;99.90;;;;;;5082591;28;20776;-57
2021/10/05 00:17:58;;;;;;;5.15;2.90;;;9.90;99.90;;;;;;5073936;28;19920;-55
2021/10/05 00:20:24;;;;;;;;;;;10.00;99.90;;;;;;5069917;28;20037;-58
2021/10/05 00:22:50;;;;;;;4.75;3.53;;;10.00;99.90;;;;;;5068814;28;19912;-55
2021/10/05 00:25:16;;;;;;;;;;;10.00;99.90;;;;;;5070741;28;20418;-58
2021/10/05 00:27:41;;;;;;;3.17;2.58;;;10.00;99.90;;;;;;5068485;28;20011;-58
2021/10/05 00:30:08;;;;;;;;;;;10.00;99.90;;;;;;5069400;28;20036;-54
2021/10/05 00:32:34;;;;;;;3.33;2.97;;;9.90;99.90;;;;;;5068261;28;19923;-49
2021/10/05 00:34:59;;;;;;;;;;;9.90;99.90;;;;;;5054451;28;20041;-58
2021/10/05 00:37:25;;;;;;;5.28;4.10;;;9.90;99.90;;;;;;5048568;28;19943;-55
2021/10/05 00:39:50;;;;;;;;;;;9.80;99.90;;;;;;5049396;28;20429;-55
2021/10/05 00:42:16;;;;;;;3.47;3.00;;;9.80;99.90;;;;;;5048328;28;20063;-55
2021/10/05 00:44:42;;;;;;;;;;;9.80;99.90;;;;;;5049551;28;20036;-57
2021/10/05 00:47:09;;;;;;;4.35;2.58;;;9.90;99.90;;;;;;5067931;28;19920;-56
2021/10/05 00:49:36;;;;;;;4.80;2.40;;;9.90;99.90;;;;;;5080608;28;20039;-54
2021/10/05 00:52:03;;;;;;;3.35;2.53;;;10.00;99.90;;;;;;5087711;28;20068;-58
2021/10/05 00:54:33;;;;;;;2.92;2.40;;;10.00;99.90;;;;;;5088733;28;20131;-56
2021/10/05 00:56:59;;;;;;;4.32;3.20;;;10.00;99.90;;;;;;5086907;28;20048;-57
2021/10/05 00:59:25;;;;;;;;;;;10.00;99.90;;;;;;5081257;28;20051;-59
2021/10/05 01:01:51;;;;;;;3.13;2.35;;;9.90;99.90;;;;;;5068664;28;19928;-56
2021/10/05 01:04:16;;;;;;;;;;;10.00;99.90;;;;;;5089458;28;20104;-58
2021/10/05 01:06:47;;;;;;;4.32;2.80;;;9.90;99.90;;;;;;5089581;28;19927;-52
2021/10/05 01:09:14;;;;;;;3.50;3.20;;;10.00;99.90;;;;;;5068843;28;20044;-58
2021/10/05 01:11:43;;;;;;;6.35;3.40;;;10.00;99.90;;;;;;5051881;28;20102;-58
2021/10/05 01:14:09;;;;;;;4.93;3.10;;;10.00;99.90;;;;;;5068238;28;20048;-59
2021/10/05 01:16:35;;;;;;;;;;;10.00;99.90;;;;;;5069033;28;20049;-56
2021/10/05 01:19:00;;;;;;;3.47;2.80;;;9.90;99.90;;;;;;5069473;28;19970;-57
2021/10/05 01:21:26;;;;;;;;;;;9.90;99.90;;;;;;5069520;28;20052;-51
2021/10/05 01:23:51;;;;;;;4.57;3.67;;;9.80;99.90;;;;;;5084764;28;19923;-58
2021/10/05 01:26:17;;;;;;;5.50;4.15;;;9.80;99.90;;;;;;5089375;28;20407;-57
2021/10/05 01:28:42;;;;;;;;;;;9.90;99.90;;;;;;5088220;28;20040;-56
2021/10/05 01:31:08;;;;;;;5.88;4.50;;;9.90;99.90;;;;;;5076870;28;19916;-57
2021/10/05 01:33:33;;;;;;;;;;;9.90;99.90;;;;;;5089236;28;20105;-56
2021/10/05 01:35:59;;;;;;;14.40;8.80;;;9.90;99.90;;;;;;5089036;28;19962;-59
2021/10/05 01:38:25;;;;;;;;;;;9.90;99.90;;;;;;5088566;28;20667;-58
2021/10/05 01:40:50;;;;;;;34.72;18.92;;;9.90;99.90;;;;;;5088070;28;20002;-54
2021/10/05 01:43:16;;;;;;;;;;;9.90;99.90;;;;;;5089421;28;20758;-59
2021/10/05 01:45:42;;;;;;;11.07;7.00;;;9.90;99.90;;;;;;5084317;28;19920;-58
2021/10/05 01:48:07;;;;;;;;;;;9.80;99.90;;;;;;5069851;28;20933;-59
2021/10/05 01:50:35;;;;;;;6.40;4.78;;;9.80;99.90;;;;;;5068606;28;19916;-60
2021/10/05 01:53:01;;;;;;;6.38;5.00;;;9.80;99.90;;;;;;5067027;28;20116;-57
2021/10/05 01:55:26;;;;;;;;;;;9.80;99.90;;;;;;5068572;28;20139;-58
2021/10/05 01:57:52;;;;;;;11.13;5.07;;;9.80;99.90;;;;;;5067296;28;19916;-58
2021/10/05 02:00:17;;;;;;;;;;;9.80;99.90;;;;;;5076375;28;20040;-59
2021/10/05 02:02:43;;;;;;;7.05;4.63;;;9.90;99.90;;;;;;5068593;28;19976;-59
2021/10/05 02:05:09;;;;;;;;;;;9.90;99.90;;;;;;5074067;28;20032;-58
2021/10/05 02:07:35;;;;;;;5.15;3.65;;;9.90;99.90;;;;;;5080528;28;19924;-60
2021/10/05 02:10:01;;;;;;;4.95;3.70;;;9.90;99.90;;;;;;5067622;28;20039;-56
2021/10/05 02:12:27;;;;;;;;;;;9.90;99.90;;;;;;5067714;28;20041;-60
2021/10/05 02:14:53;;;;;;;3.88;3.40;;;9.90;99.90;;;;;;5071621;28;19920;-60
2021/10/05 02:17:19;;;;;;;8.43;4.00;;;9.90;99.90;;;;;;5073671;28;20504;-56
2021/10/05 02:19:45;;;;;;;;;;;9.80;99.90;;;;;;5067658;28;20040;-55
2021/10/05 02:22:11;;;;;;;5.50;3.58;;;9.80;99.90;;;;;;5066966;28;19916;-59
2021/10/05 02:24:46;;;;;;;;;;;9.80;99.90;;;;;;5068248;28;20076;-59
2021/10/05 02:27:14;;;;;;;4.93;3.90;;;9.80;99.90;;;;;;5072247;28;20505;-58
2021/10/05 02:29:40;;;;;;;8.70;3.78;;;9.70;99.90;;;;;;5068844;28;20037;-58
2021/10/05 02:32:07;;;;;;;4.28;3.17;;;9.70;99.90;;;;;;5083215;28;20113;-58
2021/10/05 02:34:34;;;;;;;4.93;3.78;;;9.70;99.90;;;;;;5078856;28;20047;-59
2021/10/05 02:36:59;;;;;;;5.38;3.63;;;9.70;99.90;;;;;;5067620;28;20500;-59
2021/10/05 02:39:25;;;;;;;;;;;9.70;99.90;;;;;;5067747;28;20052;-58
2021/10/05 02:41:51;;;;;;;3.28;2.88;;;9.80;99.90;;;;;;5065749;28;19985;-57
2021/10/05 02:44:16;;;;;;;;;;;9.70;99.90;;;;;;5067419;28;20048;-51
2021/10/05 02:46:42;;;;;;;4.53;3.58;;;9.70;99.90;;;;;;5066151;28;19925;-55
2021/10/05 02:49:07;;;;;;;;;;;9.80;99.90;;;;;;5066687;28;20458;-56
2021/10/05 02:51:33;;;;;;;4.03;3.22;;;9.70;99.90;;;;;;5066262;28;19924;-60
2021/10/05 02:53:59;;;;;;;;;;;9.70;99.90;;;;;;5068036;28;20036;-59
2021/10/05 02:56:25;;;;;;;4.25;2.90;;;9.70;99.90;;;;;;5066237;28;20051;-59
2021/10/05 02:58:50;;;;;;;;;;;9.70;99.90;;;;;;5071222;28;20106;-59
2021/10/05 03:01:16;;;;;;;4.65;3.42;;;9.70;99.90;;;;;;5073169;28;19917;-58
2021/10/05 03:03:41;;;;;;;;;;;9.70;99.90;;;;;;5066945;28;20105;-59
2021/10/05 03:06:07;;;;;;;3.10;2.63;;;9.60;99.90;;;;;;5067374;28;19975;-59
2021/10/05 03:08:34;;;;;;;;;;;9.70;99.90;;;;;;5081647;28;20124;-59
2021/10/05 03:11:00;;;;;;;3.03;2.58;;;9.70;99.90;;;;;;5086707;28;20368;-58
2021/10/05 03:13:29;;;;;;;;;;;9.70;99.90;;;;;;5085987;28;20130;-59
2021/10/05 03:15:54;;;;;;;3.80;2.35;;;9.70;99.90;;;;;;5086815;28;19923;-59
2021/10/05 03:18:20;;;;;;;;;;;9.80;99.90;;;;;;5087224;28;20121;-54
2021/10/05 03:20:46;;;;;;;2.08;1.70;;;9.80;99.90;;;;;;5086712;28;20548;-57
2021/10/05 03:23:11;;;;;;;;;;;9.80;99.90;;;;;;5087146;28;20039;-58
2021/10/05 03:25:37;;;;;;;3.10;1.90;;;9.80;99.90;;;;;;5086648;28;19920;-57
2021/10/05 03:28:02;;;;;;;;;;;9.80;99.90;;;;;;5086816;28;20040;-58
2021/10/05 03:30:28;;;;;;;3.35;2.10;;;9.80;99.90;;;;;;5077074;28;19924;-59
2021/10/05 03:32:53;;;;;;;;;;;9.70;99.90;;;;;;5085920;28;20043;-58
2021/10/05 03:35:19;;;;;;;2.38;2.03;;;9.70;99.90;;;;;;5086499;28;19920;-58
2021/10/05 03:37:44;;;;;;;;;;;9.70;99.90;;;;;;5086454;28;20036;-49
2021/10/05 03:40:10;;;;;;;4.60;2.10;;;9.70;99.90;;;;;;5086575;28;19916;-57
2021/10/05 03:42:35;;;;;;;;;;;9.80;99.90;;;;;;5086259;28;20127;-59
2021/10/05 03:45:01;;;;;;;2.70;1.95;;;9.70;99.90;;;;;;5086969;28;19916;-58
2021/10/05 03:47:27;;;;;;;;;;;9.70;99.90;;;;;;5086463;28;20407;-58
2021/10/05 03:49:52;;;;;;;8.93;2.17;;;9.70;99.90;;;;;;5086362;28;19926;-55
2021/10/05 03:52:18;;;;;;;;;;;9.70;99.90;;;;;;5084076;28;20684;-58
2021/10/05 03:54:43;;;;;;;3.20;2.20;;;9.70;99.90;;;;;;5090747;28;19916;-58
2021/10/05 03:57:09;;;;;;;3.30;1.98;;;9.60;99.90;;;;;;5090440;28;20576;-58
2021/10/05 03:59:34;;;;;;;;;;;9.60;99.90;;;;;;5082899;28;20044;-55
2021/10/05 04:02:00;;;;;;;2.85;1.73;;;9.60;99.90;;;;;;5070007;28;19916;-57
2021/10/05 04:04:25;;;;;;;;;;;9.60;99.90;;;;;;5078257;28;20070;-56
2021/10/05 04:06:51;;;;;;;27.33;15.18;;;9.70;99.90;;;;;;5089093;28;19928;-53
2021/10/05 04:09:16;;;;;;;;;;;9.70;99.90;;;;;;5071004;28;20534;-49
2021/10/05 04:11:42;;;;;;;24.35;13.32;;;9.80;99.90;;;;;;5074871;28;19916;-53
2021/10/05 04:14:08;;;;;;;;;;;9.80;99.90;;;;;;5082152;28;20401;-53
2021/10/05 04:16:33;;;;;;;311.92;137.30;;;9.80;99.90;;;;;;5089196;28;20347;-58
2021/10/05 04:18:59;;;;;;;;;;;9.80;99.90;;;;;;5089189;28;20497;-55
2021/10/05 04:21:25;;;;;;;39.92;18.38;;;9.90;99.90;;;;;;5087144;28;19967;-57
2021/10/05 04:23:50;;;;;;;;;;;9.90;99.90;;;;;;5081144;28;20412;-58
2021/10/05 04:26:16;;;;;;;11.35;5.88;;;9.90;99.90;;;;;;5089996;28;19931;-59
2021/10/05 04:28:41;;;;;;;;;;;9.90;99.90;;;;;;5087403;28;20068;-56
2021/10/05 04:31:07;;;;;;;20.27;12.05;;;9.90;99.90;;;;;;5079626;28;20410;-58
2021/10/05 04:33:32;;;;;;;;;;;10.00;99.90;;;;;;5080910;28;20044;-59
2021/10/05 04:35:58;;;;;;;41.90;21.45;;;9.90;99.90;;;;;;5087900;28;19951;-59
2021/10/05 04:38:24;;;;;;;;;;;10.00;99.90;;;;;;5090775;28;20450;-59
2021/10/05 04:40:50;;;;;;;5.43;3.25;;;10.00;99.90;;;;;;5077936;28;20326;-59
2021/10/05 04:43:15;;;;;;;;;;;9.90;99.90;;;;;;5070012;28;20102;-59
2021/10/05 04:45:41;;;;;;;6.28;4.13;;;9.90;99.90;;;;;;5068275;28;19924;-58
2021/10/05 04:48:07;;;;;;;;;;;10.00;99.90;;;;;;5069149;28;20214;-58
2021/10/05 04:50:33;;;;;;;4.28;2.80;;;10.00;99.90;;;;;;5069344;28;20373;-60
2021/10/05 04:52:59;;;;;;;4.68;3.22;;;10.00;99.90;;;;;;5068536;28;20066;-60
2021/10/05 04:55:25;;;;;;;;;;;9.90;99.90;;;;;;5069726;28;20500;-57
2021/10/05 04:57:51;;;;;;;5.45;3.42;;;9.90;99.90;;;;;;5073426;28;19920;-59
2021/10/05 05:00:17;;;;;;;6.20;3.80;;;10.00;99.90;;;;;;5072370;28;20036;-56
2021/10/05 05:02:43;;;;;;;;;;;10.00;99.90;;;;;;5089167;28;20534;-57
2021/10/05 05:05:09;;;;;;;6.22;4.00;;;9.90;99.90;;;;;;5088899;28;19916;-56
2021/10/05 05:07:34;;;;;;;;;;;9.90;99.90;;;;;;5085604;28;20584;-60
2021/10/05 05:10:02;;;;;;;3.38;2.63;;;9.90;99.90;;;;;;5088706;28;19922;-58
2021/10/05 05:12:28;;;;;;;6.25;3.05;;;10.00;99.90;;;;;;5088104;28;20071;-57
2021/10/05 05:14:54;;;;;;;3.30;2.75;;;9.90;99.90;;;;;;5089175;28;20484;-56
2021/10/05 05:17:19;;;;;;;;;;;10.00;99.90;;;;;;5087309;28;20108;-59
2021/10/05 05:19:45;;;;;;;3.47;2.63;;;10.00;99.90;;;;;;5088485;28;19916;-58
2021/10/05 05:22:11;;;;;;;;;;;10.00;99.90;;;;;;5088773;28;20040;-59
2021/10/05 05:24:36;;;;;;;7.75;3.85;;;9.90;99.90;;;;;;5089162;28;19920;-58
2021/10/05 05:27:02;;;;;;;;;;;9.90;99.90;;;;;;5073777;28;20040;-61
2021/10/05 05:29:28;;;;;;;3.97;2.80;;;9.90;99.90;;;;;;5080214;28;20449;-58
2021/10/05 05:31:57;;;;;;;;;;;9.90;99.90;;;;;;5085113;28;20036;-60
2021/10/05 05:34:23;;;;;;;8.95;4.80;;;10.00;99.90;;;;;;5087603;28;20021;-59
2021/10/05 05:36:49;;;;;;;5.60;3.67;;;10.00;99.90;;;;;;5070671;28;20048;-59
2021/10/05 05:39:16;;;;;;;;;;;10.10;99.90;;;;;;5069037;28;20047;-59
2021/10/05 05:41:45;;;;;;;15.82;7.75;;;10.00;99.90;;;;;;5077192;28;19916;-57
2021/10/05 05:44:12;;;;;;;5.13;3.17;;;10.10;99.90;;;;;;5077900;28;20043;-61
2021/10/05 05:46:38;;;;;;;44.70;22.35;;;10.10;99.90;;;;;;5082678;28;20725;-59
2021/10/05 05:49:03;;;;;;;;;;;10.10;99.90;;;;;;5077459;28;20036;-61
2021/10/05 05:51:29;;;;;;;9.30;5.10;;;10.00;99.90;;;;;;5073874;28;20537;-61
2021/10/05 05:53:55;;;;;;;;;;;10.10;99.90;;;;;;5076000;28;20093;-57
2021/10/05 05:56:20;;;;;;;4.10;3.13;;;10.10;99.90;;;;;;5076247;28;20338;-52
2021/10/05 05:58:48;;;;;;;;;;;10.00;99.90;;;;;;5075507;28;20218;-62
2021/10/05 06:01:15;;;;;;;6.38;3.63;;;10.00;99.90;;;;;;5072958;28;19947;-60
2021/10/05 06:03:41;;;;;;;6.50;4.10;;;10.10;99.90;;;;;;5069097;28;20064;-59
2021/10/05 06:06:06;;;;;;;;;;;10.10;99.90;;;;;;5073460;28;20084;-57
2021/10/05 06:08:32;;;;;;;3.00;2.00;;;10.00;99.90;;;;;;5075963;28;19981;-61
2021/10/05 06:10:58;;;;;;;2.53;1.83;;;10.00;99.90;;;;;;5074168;28;20028;-61
2021/10/05 06:13:24;;;;;;;;;;;10.00;99.90;;;;;;5076478;28;20118;-60
2021/10/05 06:15:49;;;;;;;3.45;2.38;;;10.10;99.90;;;;;;5079876;28;19916;-58
2021/10/05 06:18:15;;;;;;;;;;;10.10;99.90;;;;;;5087500;28;20028;-60
2021/10/05 06:20:40;;;;;;;4.00;2.45;;;10.10;99.90;;;;;;5078201;28;20002;-58
2021/10/05 06:23:06;;;;;;;;;;;10.10;99.90;;;;;;5078951;28;20082;-58
2021/10/05 06:25:32;;;;;;;2.63;1.98;;;10.10;99.90;;;;;;5077436;28;19916;-62
2021/10/05 06:27:58;;;;;;;;;;;10.10;99.90;;;;;;5069642;28;20031;-59
2021/10/05 06:30:25;;;;;;;4.88;2.20;;;10.10;99.90;;;;;;5073047;28;19920;-60
2021/10/05 06:32:53;;;;;;;2.50;2.20;;;10.10;99.90;;;;;;5075112;28;20029;-61
2021/10/05 06:35:28;;;;;;;2.55;2.00;;;10.10;99.90;;;;;;5071406;28;20033;-59
2021/10/05 06:37:55;;;;;;;2.63;1.97;;;10.10;99.90;;;;;;5067262;28;20040;-59
2021/10/05 06:40:25;;;;;;;3.92;2.13;;;10.20;99.90;;;;;;5073765;28;20097;-61
2021/10/05 06:42:51;;;;;;;2.58;1.83;;;10.20;99.90;;;;;;5086478;28;20040;-56
2021/10/05 06:45:17;;;;;;;;;;;10.20;99.90;;;;;;5087059;28;20488;-60
2021/10/05 06:47:44;;;;;;;2.78;1.95;;;10.20;99.90;;;;;;5084096;28;20426;-60
2021/10/05 06:50:10;;;;;;;4.85;2.97;;;10.20;99.90;;;;;;5079668;28;20033;-60
2021/10/05 06:52:35;;;;;;;;;;;10.20;99.90;;;;;;5076886;28;20037;-60
2021/10/05 06:55:03;;;;;;;6.70;2.83;;;10.30;99.90;;;;;;5075824;28;19942;-59
2021/10/05 06:57:29;;;;;;;6.25;3.88;;;10.30;99.90;;;;;;5074058;28;20055;-55
2021/10/05 06:59:54;;;;;;;;;;;10.30;99.90;;;;;;5086861;28;20036;-56
2021/10/05 07:02:20;;;;;;;5.18;3.22;;;10.30;99.90;;;;;;5066392;28;20485;-58
2021/10/05 07:04:46;;;;;;;;;;;10.30;99.90;;;;;;5068213;28;20508;-59
2021/10/05 07:07:11;;;;;;;3.90;2.50;;;10.30;99.90;;;;;;5070608;28;19920;-58
2021/10/05 07:09:37;;;;;;;;;;;10.40;99.90;;;;;;5069642;28;20047;-60
2021/10/05 07:12:03;;;;;;;5.53;3.35;;;10.40;99.90;;;;;;5086526;28;20367;-58
2021/10/05 07:14:29;;;;;;;4.38;2.85;;;10.40;99.90;;;;;;5088005;28;20043;-61
2021/10/05 07:16:54;;;;;;;;;;;10.40;99.90;;;;;;5081002;28;20048;-59
2021/10/05 07:19:20;;;;;;;3.97;2.80;;;10.50;99.90;;;;;;5081849;28;19924;-55
2021/10/05 07:21:46;;;;;;;;;;;10.50;99.90;;;;;;5065217;28;20116;-52
2021/10/05 07:24:11;;;;;;;5.03;2.88;;;10.50;99.90;;;;;;5067130;28;19924;-60
2021/10/05 07:26:37;;;;;;;;;;;10.40;99.90;;;;;;5066593;28;20458;-57
2021/10/05 07:29:03;;;;;;;4.30;2.92;;;10.50;99.90;;;;;;5081533;28;19996;-60
2021/10/05 07:31:34;;;;;;;;;;;10.50;99.90;;;;;;5079283;28;20070;-59
2021/10/05 07:34:03;;;;;;;4.60;2.97;;;10.50;99.90;;;;;;5072383;28;19955;-54
2021/10/05 07:36:29;;;;;;;7.97;3.40;;;10.60;99.90;;;;;;5070598;28;20048;-57
2021/10/05 07:38:55;;;;;;;;;;;10.60;99.90;;;;;;5071920;28;20462;-58
2021/10/05 07:41:21;;;;;;;5.32;3.35;;;10.50;99.90;;;;;;5081626;28;19920;-59
2021/10/05 07:43:46;;;;;;;;;;;10.50;99.90;;;;;;5088038;28;20048;-57
2021/10/05 07:46:16;;;;;;;7.05;4.78;;;10.40;99.90;;;;;;5090189;28;19995;-59
2021/10/05 07:48:41;;;;;;;6.22;4.30;;;10.50;99.90;;;;;;5086739;28;20775;-60
2021/10/05 07:51:07;;;;;;;;;;;10.60;99.90;;;;;;5089578;28;20028;-60
2021/10/05 07:53:35;;;;;;;7.72;4.65;;;10.60;99.90;;;;;;5081860;28;19973;-61
2021/10/05 07:56:01;;;;;;;6.90;4.43;;;10.60;99.90;;;;;;5088145;28;20048;-56
2021/10/05 07:58:26;;;;;;;;;;;10.60;99.90;;;;;;5088105;28;20044;-54
2021/10/05 08:00:52;;;;;;;4.50;3.58;;;10.70;99.90;;;;;;5080082;28;20437;-58
2021/10/05 08:03:17;;;;;;;;;;;10.70;99.90;;;;;;5082670;28;20663;-59
2021/10/05 08:05:43;;;;;;;5.80;4.30;;;10.70;99.90;;;;;;5086318;28;19923;-58
2021/10/05 08:08:08;;;;;;;;;;;10.70;99.90;;;;;;5076142;28;21928;-57
2021/10/05 08:10:35;;;;;;;7.13;4.65;;;10.70;99.90;;;;;;5090876;28;20403;-55
2021/10/05 08:13:01;;;;;;;7.72;4.68;;;10.70;99.90;;;;;;5072855;28;20389;-60
2021/10/05 08:15:28;;;;;;;6.88;3.42;;;10.70;99.90;;;;;;5069571;28;20075;-56
2021/10/05 08:17:55;;;;;;;4.65;3.75;;;10.70;99.90;;;;;;5069263;28;20044;-58
2021/10/05 08:20:22;;;;;;;6.38;4.15;;;10.80;99.90;;;;;;5069304;28;20044;-61
2021/10/05 08:22:48;;;;;;;7.35;4.95;;;10.80;99.90;;;;;;5070815;28;20040;-58
2021/10/05 08:25:13;;;;;;;;;;;10.80;99.90;;;;;;5081148;28;20434;-57
2021/10/05 08:27:39;;;;;;;5.38;3.70;;;10.70;99.90;;;;;;5063228;28;19924;-60
2021/10/05 08:30:06;;;;;;;;;;;10.80;99.90;;;;;;5070072;28;20045;-54
2021/10/05 08:32:32;;;;;;;7.70;3.78;;;10.90;99.90;;;;;;5071416;28;19950;-58
2021/10/05 08:34:57;;;;;;;;;;;10.90;99.90;;;;;;5070099;28;20087;-58
2021/10/05 08:37:23;;;;;;;5.07;3.25;;;10.90;99.90;;;;;;5069603;28;19920;-57
2021/10/05 08:39:49;;;;;;;;;;;11.00;99.90;;;;;;5069275;28;20045;-55
2021/10/05 08:42:14;;;;;;;5.38;3.67;;;11.10;99.90;;;;;;5069176;28;19924;-59
2021/10/05 08:44:40;;;;;;;;;;;11.00;99.90;;;;;;5070124;28;20086;-59
2021/10/05 08:47:06;;;;;;;6.82;2.90;;;11.00;99.90;;;;;;5068684;28;19920;-58
2021/10/05 08:49:31;;;;;;;3.83;2.75;;;11.00;99.90;;;;;;5068991;28;20174;-58
2021/10/05 08:51:57;;;;;;;;;;;11.10;99.90;;;;;;5068702;28;20121;-59
2021/10/05 08:54:23;;;;;;;5.78;3.67;;;11.20;99.90;;;;;;5070503;28;19916;-59
2021/10/05 08:56:49;;;;;;;5.85;4.25;;;11.10;99.90;;;;;;5081530;28;20098;-55
2021/10/05 08:59:15;;;;;;;4.82;3.55;;;11.20;99.90;;;;;;5077785;28;20514;-57
2021/10/05 09:01:41;;;;;;;;;;;11.20;99.90;;;;;;5068482;28;20044;-58
2021/10/05 09:04:07;;;;;;;15.88;8.02;;;11.20;99.90;;;;;;5068509;28;19927;-59
2021/10/05 09:06:35;;;;;;;4.18;3.05;;;11.30;99.90;;;;;;5068949;28;20056;-58
2021/10/05 09:09:04;;;;;;;3.55;2.55;;;11.30;99.90;;;;;;5068515;28;20048;-59
2021/10/05 09:11:42;;;;;;;4.35;2.63;;;11.20;99.90;;;;;;5068996;28;20064;-60
2021/10/05 09:14:08;;;;;;;3.33;2.38;;;11.20;99.90;;;;;;5069127;28;20040;-60
2021/10/05 09:16:34;;;;;;;4.70;2.78;;;11.20;99.90;;;;;;5068634;28;20044;-61
2021/10/05 09:19:08;;;;;;;;;;;11.20;99.90;;;;;;5082568;28;20079;-59
2021/10/05 09:21:36;;;;;;;4.40;3.17;;;11.20;99.90;;;;;;5088024;28;20500;-60
2021/10/05 09:24:04;;;;;;;4.72;3.40;;;11.20;99.90;;;;;;5091619;28;20084;-56
2021/10/05 09:26:51;;;;;;;3.10;2.80;;;11.10;99.90;;;;;;5084841;28;20159;-58
2021/10/05 09:29:21;;;;;;;4.70;3.17;;;11.10;99.90;;;;;;5089027;28;20123;-59
2021/10/05 09:31:56;;;;;;;4.18;3.20;;;11.10;99.90;;;;;;5088641;28;20101;-62
2021/10/05 09:34:38;;;;;;;5.15;2.78;;;11.10;99.90;;;;;;5089681;28;20035;-55
2021/10/05 09:37:17;;;;;;;9.30;5.60;;;11.20;99.90;;;;;;5089910;28;20044;-62
2021/10/05 09:39:46;;;;;;;6.18;2.30;;;11.20;99.90;;;;;;5089329;28;20051;-60
2021/10/05 09:42:27;;;;;;;2.70;2.33;;;11.20;99.90;;;;;;5090410;28;20132;-59
2021/10/05 09:44:58;;;;;;;3.00;2.38;;;11.30;99.90;;;;;;5090650;28;20036;-53
2021/10/05 09:47:38;;;;;;;2.90;2.47;;;11.30;99.90;;;;;;5087853;28;20048;-57
2021/10/05 09:50:30;;;;;;;3.15;2.65;;;11.40;99.90;;;;;;5087867;28;20515;-57
2021/10/05 09:53:04;;;;;;;2.80;2.30;;;11.50;99.90;;;;;;5087986;28;20039;-59
2021/10/05 09:55:36;;;;;;;3.15;2.47;;;11.60;99.90;;;;;;5076054;28;20041;-59
2021/10/05 09:58:02;;;;;;;4.28;2.47;;;11.60;99.90;;;;;;5071013;28;21215;-57
2021/10/05 10:00:31;;;;;;;2.13;1.92;;;11.70;99.90;;;;;;5080355;28;20062;-60
2021/10/05 10:02:57;;;;;;;2.30;1.83;;;11.70;99.90;;;;;;5072026;28;20202;-61
2021/10/05 10:05:23;;;;;;;;;;;11.70;99.90;;;;;;5078225;28;20897;-59
2021/10/05 10:07:51;;;;;;;3.88;2.03;;;11.70;99.90;;;;;;5077625;28;19920;-60
2021/10/05 10:10:21;;;;;;;2.45;1.65;;;11.70;99.90;;;;;;5082941;28;20163;-56
2021/10/05 10:12:52;;;;;;;2.22;1.80;;;11.70;99.90;;;;;;5077715;28;20047;-59
2021/10/05 10:15:22;;;;;;;2.22;1.95;;;11.80;99.90;;;;;;5078571;28;20085;-60
2021/10/05 10:17:49;;;;;;;2.42;1.88;;;11.90;99.90;;;;;;5075793;28;20067;-59
2021/10/05 10:20:26;;;;;;;2.65;1.90;;;11.90;99.90;;;;;;5087809;28;20130;-61
2021/10/05 10:22:53;;;;;;;2.65;2.00;;;12.00;99.90;;;;;;5086647;28;20350;-60
2021/10/05 10:25:28;;;;;;;4.28;1.70;;;12.10;99.90;;;;;;5090652;28;20078;-62
2021/10/05 10:27:58;;;;;;;1.90;1.50;;;12.20;99.90;;;;;;5078488;28;20055;-57
2021/10/05 10:30:26;;;;;;;8.90;4.13;;;12.40;99.90;;;;;;5071505;28;20044;-58
2021/10/05 10:33:00;;;;;;;2.20;1.70;;;12.60;99.90;;;;;;5069898;28;20400;-58
2021/10/05 10:35:27;;;;;;;2.53;1.52;;;12.80;99.90;;;;;;5075954;28;20040;-59
2021/10/05 10:37:54;;;;;;;1.70;1.60;;;12.80;99.90;;;;;;5071024;28;20051;-59
2021/10/05 10:40:33;;;;;;;2.25;1.30;;;12.80;99.90;;;;;;5088490;28;20040;-58
2021/10/05 10:43:13;;;;;;;3.38;1.20;;;12.90;99.90;;;;;;5080413;28;20040;-57
2021/10/05 10:45:49;;;;;;;1.63;1.48;;;12.90;99.90;;;;;;5078961;28;20063;-59
2021/10/05 10:48:30;;;;;;;;;;;12.90;99.90;;;;;;5070191;28;20044;-57
2021/10/05 10:51:00;;;;;;;2.00;1.45;;;12.80;99.90;;;;;;5060426;22;19939;-63
2021/10/05 10:53:37;;;;;;;1.60;1.38;;;12.80;99.90;;;;;;5046942;28;20124;-63
2021/10/05 10:56:02;;;;;;;;;;;12.80;99.90;;;;;;5042427;28;20041;-59
2021/10/05 10:58:45;;;;;;;1.48;1.30;;;12.90;99.90;;;;;;5040276;28;19917;-59
2021/10/05 11:01:14;;;;;;;3.55;1.80;;;13.00;99.90;;;;;;5032798;28;20073;-60
2021/10/05 11:03:41;;;;;;;2.03;1.10;;;12.90;99.90;;;;;;5043936;28;20566;-61
2021/10/05 11:06:14;;;;;;;1.00;0.90;;;12.80;99.90;;;;;;5045738;28;20623;-64
2021/10/05 11:08:54;;;;;;;2.53;1.20;;;12.80;99.90;;;;;;5046723;28;20045;-61
2021/10/05 11:11:43;;;;;;;1.73;1.00;;;12.80;99.90;;;;;;5043280;28;20108;-60
2021/10/05 11:14:19;;;;;;;2.55;0.98;;;12.80;99.90;;;;;;5047094;28;20049;-62
2021/10/05 11:17:00;;;;;;;2.00;1.23;;;12.80;99.90;;;;;;5029595;28;20527;-61
2021/10/05 11:19:28;;;;;;;3.40;1.27;;;12.70;99.90;;;;;;5040159;28;20037;-62
2021/10/05 11:21:55;;;;;;;1.50;1.15;;;12.60;99.90;;;;;;5035135;28;20068;-61
2021/10/05 11:24:20;;;;;;;7.35;1.40;;;12.60;99.90;;;;;;5042511;28;20452;-58
2021/10/05 11:26:50;;;;;;;;;;;12.70;99.90;;;;;;5042607;28;20033;-59
2021/10/05 11:29:27;;;;;;;1.75;1.10;;;12.70;99.90;;;;;;5044940;28;19924;-61
2021/10/05 11:32:01;;;;;;;2.95;1.23;;;13.10;99.90;;;;;;5044543;28;20048;-58
2021/10/05 11:34:28;;;;;;;2.88;1.15;;;13.30;99.90;;;;;;5047413;28;20044;-60
2021/10/05 11:36:59;;;;;;;1.48;1.08;;;13.20;99.90;;;;;;5048002;28;20471;-58
2021/10/05 11:39:27;;;;;;;2.28;1.27;;;13.10;99.90;;;;;;5046932;28;20041;-61
2021/10/05 11:41:58;;;;;;;2.92;1.60;;;13.00;99.90;;;;;;5028534;28;20063;-58
2021/10/05 11:44:26;;;;;;;1.33;1.20;;;13.30;99.90;;;;;;5013845;28;20037;-61
2021/10/05 11:47:00;;;;;;;2.80;2.00;;;13.40;99.90;;;;;;5045623;28;20073;-59
2021/10/05 11:49:30;;;;;;;3.78;1.75;;;13.50;99.90;;;;;;5049244;28;20045;-61
2021/10/05 11:51:56;;;;;;;1.90;1.50;;;13.50;99.90;;;;;;5045674;28;20201;-60
2021/10/05 11:54:33;;;;;;;2.03;1.65;;;13.50;99.90;;;;;;5046832;28;20045;-59
2021/10/05 11:57:01;;;;;;;3.25;2.20;;;13.50;99.90;;;;;;5047161;28;20052;-60
2021/10/05 11:59:33;;;;;;;2.42;1.38;;;13.70;99.90;;;;;;5061288;28;20774;-60
2021/10/05 12:02:05;;;;;;;3.00;1.38;;;13.90;99.90;;;;;;5052375;28;20049;-61
2021/10/05 12:04:31;;;;;;;4.60;2.63;;;14.00;99.90;;;;;;5047363;28;20392;-61
2021/10/05 12:07:18;;;;;;;4.25;1.73;;;14.20;99.90;;;;;;5045999;28;20052;-59
2021/10/05 12:09:46;;;;;;;2.28;1.90;;;14.30;99.90;;;;;;5046981;28;20326;-60
2021/10/05 12:12:17;;;;;;;2.42;1.48;;;14.20;99.90;;;;;;5045723;28;20072;-60
2021/10/05 12:14:52;;;;;;;2.13;1.45;;;14.00;99.70;;;;;;5066145;28;20479;-57
2021/10/05 12:17:19;;;;;;;2.08;1.70;;;13.80;99.40;;;;;;5052149;28;20040;-61
2021/10/05 12:20:00;;;;;;;2.85;1.30;;;13.80;99.90;;;;;;5050282;28;20044;-61
2021/10/05 12:22:28;;;;;;;1.63;1.20;;;13.90;99.90;;;;;;5050196;28;20051;-61
2021/10/05 12:24:58;;;;;;;1.55;1.27;;;13.80;99.40;;;;;;5050531;28;20400;-57
2021/10/05 12:27:29;;;;;;;2.30;1.27;;;13.80;99.90;;;;;;5049296;28;20513;-61
2021/10/05 12:30:15;;;;;;;1.75;1.30;;;13.70;99.80;;;;;;5050135;28;20052;-58
2021/10/05 12:33:10;;;;;;;1.38;1.17;;;13.60;99.80;;;;;;5050915;28;20037;-61
2021/10/05 12:35:37;;;;;;;1.40;1.10;;;13.50;99.80;;;;;;5049811;28;20083;-59
2021/10/05 12:38:17;;;;;;;3.28;2.20;;;13.50;99.90;;;;;;5049757;28;20492;-61
2021/10/05 12:40:51;;;;;;;1.98;1.67;;;13.40;99.90;;;;;;5049480;28;20040;-53
2021/10/05 12:43:23;;;;;;;9.07;4.57;;;13.40;99.90;;;;;;5049246;28;20048;-59
2021/10/05 12:45:59;;;;;;;2.97;2.13;;;13.40;99.90;;;;;;5048822;28;20431;-58
2021/10/05 12:48:33;;;;;;;4.73;3.03;;;13.50;99.90;;;;;;5049858;28;20506;-58
2021/10/05 12:51:00;;;;;;;3.63;1.67;;;13.50;99.90;;;;;;5049372;28;20036;-61
2021/10/05 12:53:25;;;;;;;2.75;1.50;;;13.50;99.90;;;;;;5049053;28;20037;-59
2021/10/05 12:55:51;;;;;;;;;;;13.50;99.90;;;;;;5049609;28;20040;-60
2021/10/05 12:58:16;;;;;;;3.38;1.60;;;13.50;99.90;;;;;;5049631;28;19917;-58
2021/10/05 13:00:43;;;;;;;;;;;13.50;99.90;;;;;;5048830;28;21113;-59
2021/10/05 13:03:12;;;;;;;3.17;1.83;;;13.60;99.90;;;;;;5030839;28;19924;-57
2021/10/05 13:05:38;;;;;;;5.88;3.17;;;13.60;99.90;;;;;;5049150;28;20048;-56
2021/10/05 13:08:04;;;;;;;3.85;2.67;;;13.50;99.90;;;;;;5030131;28;20517;-61
2021/10/05 13:10:30;;;;;;;;;;;13.50;99.90;;;;;;5049980;28;20033;-58
2021/10/05 13:12:56;;;;;;;3.72;2.55;;;13.50;99.90;;;;;;5048474;28;19916;-60
2021/10/05 13:15:21;;;;;;;;;;;13.60;99.90;;;;;;5049501;28;20081;-58
2021/10/05 13:17:47;;;;;;;5.75;3.85;;;13.50;99.90;;;;;;5048317;28;19917;-55